createdAt,value
2023-03-26T00:00:24.351Z,974.53
2023-03-26T00:00:55.402Z,974.84
2023-03-26T00:01:26.348Z,974.84
2023-03-26T00:01:59.447Z,974.63
2023-03-26T00:02:30.738Z,974.63
2023-03-26T00:03:03.501Z,974.74
2023-03-26T00:03:34.410Z,974.74
2023-03-26T00:04:07.391Z,974.74
2023-03-26T00:04:38.673Z,974.63
2023-03-26T00:05:11.601Z,974.63
2023-03-26T00:05:43.249Z,974.63
2023-03-26T00:06:15.428Z,974.63
2023-03-26T00:06:46.450Z,974.74
2023-03-26T00:07:19.446Z,974.74
2023-03-26T00:07:50.691Z,974.63
2023-03-26T00:08:23.377Z,974.63
2023-03-26T00:08:54.542Z,974.53
2023-03-26T00:09:27.412Z,974.53
2023-03-26T00:09:58.614Z,974.63
2023-03-26T00:10:31.681Z,974.63
2023-03-26T00:11:02.547Z,974.74
2023-03-26T00:11:35.445Z,974.74
2023-03-26T00:12:06.457Z,974.84
2023-03-26T00:12:39.548Z,974.74
2023-03-26T00:13:10.588Z,974.74
2023-03-26T00:13:43.491Z,974.74
2023-03-26T00:14:14.500Z,974.74
2023-03-26T00:14:30.712Z,974.74
2023-03-26T00:15:03.901Z,974.63
2023-03-26T00:15:34.570Z,974.63
2023-03-26T00:16:06.636Z,974.74
2023-03-26T00:16:38.709Z,974.63
2023-03-26T00:17:10.673Z,974.63
2023-03-26T00:17:42.583Z,974.94
2023-03-26T00:18:14.715Z,974.94
2023-03-26T00:18:46.455Z,974.84
2023-03-26T00:19:19.469Z,974.84
2023-03-26T00:19:50.608Z,974.63
2023-03-26T00:20:23.598Z,974.63
2023-03-26T00:20:54.528Z,974.74
2023-03-26T00:21:27.331Z,974.74
2023-03-26T00:21:58.599Z,974.84
2023-03-26T00:22:31.527Z,974.84
2023-03-26T00:23:02.684Z,974.63
2023-03-26T00:23:35.325Z,974.63
2023-03-26T00:24:06.518Z,974.53
2023-03-26T00:24:39.274Z,974.74
2023-03-26T00:25:10.994Z,974.74
2023-03-26T00:25:43.460Z,974.74
2023-03-26T00:26:14.464Z,974.74
2023-03-26T00:26:30.784Z,974.74
2023-03-26T00:27:02.766Z,974.84
2023-03-26T00:27:34.578Z,974.84
2023-03-26T00:28:06.714Z,974.84
2023-03-26T00:28:38.633Z,974.84
2023-03-26T00:29:11.423Z,974.84
2023-03-26T00:29:42.616Z,974.94
2023-03-26T00:30:16.072Z,974.94
2023-03-26T00:30:46.746Z,974.74
2023-03-26T00:31:02.825Z,974.74
2023-03-26T00:31:34.439Z,974.74
2023-03-26T00:32:06.512Z,974.74
2023-03-26T00:32:38.657Z,974.84
2023-03-26T00:33:10.546Z,974.84
2023-03-26T00:33:43.477Z,975.01
2023-03-26T00:34:14.541Z,975.01
2023-03-26T00:34:47.355Z,974.74
2023-03-26T00:35:18.896Z,974.74
2023-03-26T00:35:51.460Z,975.01
2023-03-26T00:36:22.632Z,975.01
2023-03-26T00:36:55.429Z,974.53
2023-03-26T00:37:26.583Z,974.53
2023-03-26T00:37:59.498Z,974.84
2023-03-26T00:38:30.690Z,974.84
2023-03-26T00:39:03.276Z,974.74
2023-03-26T00:39:34.496Z,974.74
2023-03-26T00:40:07.721Z,974.74
2023-03-26T00:40:38.438Z,974.74
2023-03-26T00:41:11.463Z,974.74
2023-03-26T00:41:42.645Z,974.63
2023-03-26T00:42:15.458Z,974.63
2023-03-26T00:42:46.592Z,974.94
2023-03-26T00:43:02.697Z,974.94
2023-03-26T00:43:34.431Z,974.94
2023-03-26T00:44:06.498Z,974.84
2023-03-26T00:44:38.585Z,974.74
2023-03-26T00:45:11.484Z,974.74
2023-03-26T00:45:43.547Z,974.63
2023-03-26T00:46:14.618Z,974.63
2023-03-26T00:46:47.632Z,974.53
2023-03-26T00:47:18.495Z,974.53
2023-03-26T00:47:51.615Z,974.63
2023-03-26T00:48:31.331Z,974.63
2023-03-26T00:48:55.491Z,974.63
2023-03-26T00:49:26.428Z,974.63
2023-03-26T00:49:59.375Z,974.53
2023-03-26T00:50:30.972Z,974.53
2023-03-26T00:51:03.328Z,974.53
2023-03-26T00:51:34.498Z,974.53
2023-03-26T00:52:07.517Z,974.63
2023-03-26T00:52:38.461Z,974.53
2023-03-26T00:53:11.618Z,974.53
2023-03-26T00:53:42.563Z,974.53
2023-03-26T00:54:15.477Z,974.53
2023-03-26T00:54:46.494Z,974.53
2023-03-26T00:55:19.606Z,974.53
2023-03-26T00:55:50.620Z,974.63
2023-03-26T00:56:23.415Z,974.63
2023-03-26T00:56:54.614Z,974.63
2023-03-26T00:57:35.403Z,974.63
2023-03-26T00:57:58.644Z,974.53
2023-03-26T00:58:33.376Z,974.53
2023-03-26T00:59:02.561Z,974.74
2023-03-26T00:59:35.500Z,974.74
2023-03-26T01:00:09.661Z,974.53
2023-03-26T01:00:39.359Z,974.43
2023-03-26T01:01:10.734Z,974.43
2023-03-26T01:01:43.532Z,974.43
2023-03-26T01:02:14.493Z,974.43
2023-03-26T01:02:30.908Z,974.43
2023-03-26T01:03:02.640Z,974.53
2023-03-26T01:03:34.551Z,974.53
2023-03-26T01:04:09.081Z,974.74
2023-03-26T01:04:38.831Z,974.53
2023-03-26T01:05:10.800Z,974.53
2023-03-26T01:05:42.600Z,974.84
2023-03-26T01:06:14.619Z,974.84
2023-03-26T01:06:46.522Z,974.53
2023-03-26T01:07:19.364Z,974.53
2023-03-26T01:07:50.539Z,974.43
2023-03-26T01:08:23.471Z,974.43
2023-03-26T01:08:54.472Z,974.63
2023-03-26T01:09:27.370Z,974.63
2023-03-26T01:09:58.613Z,974.74
2023-03-26T01:10:31.548Z,974.74
2023-03-26T01:11:02.628Z,974.74
2023-03-26T01:11:35.321Z,974.74
2023-03-26T01:12:06.525Z,974.94
2023-03-26T01:12:39.564Z,974.74
2023-03-26T01:13:10.665Z,974.74
2023-03-26T01:13:43.445Z,974.53
2023-03-26T01:14:14.663Z,974.53
2023-03-26T01:14:47.319Z,974.53
2023-03-26T01:15:19.398Z,974.53
2023-03-26T01:15:51.546Z,974.84
2023-03-26T01:16:22.747Z,974.84
2023-03-26T01:16:55.503Z,974.63
2023-03-26T01:17:26.729Z,974.63
2023-03-26T01:17:59.425Z,974.74
2023-03-26T01:18:30.741Z,974.74
2023-03-26T01:19:03.495Z,974.63
2023-03-26T01:19:34.724Z,974.63
2023-03-26T01:20:07.590Z,974.63
2023-03-26T01:20:38.633Z,974.63
2023-03-26T01:21:11.448Z,974.63
2023-03-26T01:21:42.656Z,974.53
2023-03-26T01:22:15.454Z,974.53
2023-03-26T01:22:46.655Z,974.63
2023-03-26T01:23:19.284Z,974.63
2023-03-26T01:23:50.508Z,974.43
2023-03-26T01:24:23.529Z,974.43
2023-03-26T01:24:54.746Z,974.33
2023-03-26T01:25:27.618Z,974.33
2023-03-26T01:25:58.577Z,974.53
2023-03-26T01:26:32.371Z,974.53
2023-03-26T01:27:02.656Z,974.53
2023-03-26T01:27:35.363Z,974.53
2023-03-26T01:28:06.613Z,974.63
2023-03-26T01:28:39.462Z,974.63
2023-03-26T01:29:10.612Z,974.63
2023-03-26T01:29:43.265Z,974.33
2023-03-26T01:30:15.445Z,974.33
2023-03-26T01:30:47.449Z,974.43
2023-03-26T01:31:18.535Z,974.43
2023-03-26T01:31:51.420Z,974.84
2023-03-26T01:32:22.796Z,974.84
2023-03-26T01:32:55.481Z,974.63
2023-03-26T01:33:26.761Z,974.63
2023-03-26T01:33:59.318Z,974.53
2023-03-26T01:34:30.500Z,974.53
2023-03-26T01:35:03.619Z,974.63
2023-03-26T01:35:34.603Z,974.63
2023-03-26T01:36:07.382Z,974.53
2023-03-26T01:36:38.621Z,974.53
2023-03-26T01:37:11.344Z,974.53
2023-03-26T01:37:42.585Z,974.43
2023-03-26T01:38:15.233Z,974.43
2023-03-26T01:38:46.553Z,974.33
2023-03-26T01:39:19.306Z,974.33
2023-03-26T01:39:50.660Z,974.43
2023-03-26T01:40:23.605Z,974.43
2023-03-26T01:40:54.516Z,974.43
2023-03-26T01:41:27.384Z,974.43
2023-03-26T01:41:58.592Z,974.53
2023-03-26T01:42:31.431Z,974.53
2023-03-26T01:43:02.623Z,974.63
2023-03-26T01:43:35.276Z,974.63
2023-03-26T01:44:06.478Z,974.33
2023-03-26T01:44:39.373Z,974.53
2023-03-26T01:45:11.582Z,974.53
2023-03-26T01:45:43.456Z,974.33
2023-03-26T01:46:14.575Z,974.33
2023-03-26T01:46:47.366Z,974.43
2023-03-26T01:47:18.605Z,974.43
2023-03-26T01:47:51.248Z,974.43
2023-03-26T01:48:22.523Z,974.43
2023-03-26T01:48:55.455Z,974.43
2023-03-26T01:49:26.548Z,974.43
2023-03-26T01:49:59.270Z,974.53
2023-03-26T01:50:31.006Z,974.53
2023-03-26T01:51:03.161Z,974.23
2023-03-26T01:51:34.435Z,974.23
2023-03-26T01:52:07.583Z,974.53
2023-03-26T01:52:38.406Z,974.33
2023-03-26T01:53:11.311Z,974.33
2023-03-26T01:53:42.615Z,974.33
2023-03-26T01:54:15.439Z,974.33
2023-03-26T01:54:46.675Z,974.43
2023-03-26T01:55:19.568Z,974.43
2023-03-26T01:55:50.612Z,974.43
2023-03-26T01:56:23.422Z,974.43
2023-03-26T01:56:54.586Z,974.43
2023-03-26T01:57:27.548Z,974.43
2023-03-26T01:57:58.949Z,974.23
2023-03-26T01:58:31.664Z,974.23
2023-03-26T01:59:02.672Z,974.13
2023-03-26T01:59:35.375Z,974.13
2023-03-26T02:00:07.873Z,974.33
2023-03-26T02:00:39.416Z,974.33
2023-03-26T02:01:10.590Z,974.33
2023-03-26T02:01:43.675Z,974.33
2023-03-26T02:02:14.827Z,974.33
2023-03-26T02:02:47.771Z,974.53
2023-03-26T02:03:19.062Z,974.53
2023-03-26T02:03:51.356Z,974.23
2023-03-26T02:04:22.644Z,974.23
2023-03-26T02:04:55.523Z,974.33
2023-03-26T02:05:26.864Z,974.33
2023-03-26T02:05:59.475Z,974.33
2023-03-26T02:06:30.591Z,974.33
2023-03-26T02:07:03.502Z,974.23
2023-03-26T02:07:34.636Z,974.23
2023-03-26T02:08:07.705Z,974.23
2023-03-26T02:08:38.694Z,974.13
2023-03-26T02:09:11.553Z,974.13
2023-03-26T02:09:42.636Z,974.43
2023-03-26T02:10:15.800Z,974.43
2023-03-26T02:10:46.624Z,974.13
2023-03-26T02:11:20.077Z,974.13
2023-03-26T02:11:50.602Z,974.13
2023-03-26T02:12:23.460Z,974.13
2023-03-26T02:12:54.701Z,974.33
2023-03-26T02:13:27.380Z,974.33
2023-03-26T02:13:58.564Z,974.13
2023-03-26T02:14:34.389Z,974.13
2023-03-26T02:15:03.868Z,974.23
2023-03-26T02:15:35.574Z,974.23
2023-03-26T02:16:06.699Z,974.33
2023-03-26T02:16:39.291Z,973.82
2023-03-26T02:17:10.746Z,973.82
2023-03-26T02:17:43.533Z,974.03
2023-03-26T02:18:14.645Z,974.03
2023-03-26T02:18:47.581Z,974.23
2023-03-26T02:19:18.629Z,974.23
2023-03-26T02:19:51.342Z,974.13
2023-03-26T02:20:22.770Z,974.13
2023-03-26T02:20:55.254Z,973.92
2023-03-26T02:21:26.687Z,973.92
2023-03-26T02:21:59.558Z,974.13
2023-03-26T02:22:30.739Z,974.13
2023-03-26T02:23:03.620Z,974.03
2023-03-26T02:23:34.645Z,974.03
2023-03-26T02:24:07.321Z,974.13
2023-03-26T02:24:38.703Z,973.92
2023-03-26T02:25:11.738Z,973.92
2023-03-26T02:25:42.722Z,973.92
2023-03-26T02:26:15.513Z,973.92
2023-03-26T02:26:46.674Z,974.13
2023-03-26T02:27:19.719Z,974.13
2023-03-26T02:27:50.533Z,974.03
2023-03-26T02:28:23.605Z,974.03
2023-03-26T02:28:54.789Z,974.13
2023-03-26T02:29:27.667Z,974.13
2023-03-26T02:29:58.764Z,973.92
2023-03-26T02:30:36.391Z,973.92
2023-03-26T02:31:02.781Z,974.03
2023-03-26T02:31:34.604Z,974.03
2023-03-26T02:32:07.306Z,974.13
2023-03-26T02:32:38.620Z,973.92
2023-03-26T02:33:11.481Z,973.92
2023-03-26T02:33:42.421Z,974.03
2023-03-26T02:34:15.473Z,974.03
2023-03-26T02:34:46.606Z,974.03
2023-03-26T02:35:19.611Z,974.03
2023-03-26T02:35:50.695Z,974.13
2023-03-26T02:36:24.676Z,974.13
2023-03-26T02:36:54.843Z,973.92
2023-03-26T02:37:27.418Z,973.92
2023-03-26T02:37:58.549Z,973.92
2023-03-26T02:38:32.458Z,973.92
2023-03-26T02:39:02.566Z,973.92
2023-03-26T02:39:35.412Z,973.92
2023-03-26T02:40:06.811Z,974.03
2023-03-26T02:40:41.236Z,974.03
2023-03-26T02:41:10.590Z,974.03
2023-03-26T02:41:43.592Z,974.03
2023-03-26T02:42:14.593Z,974.03
2023-03-26T02:42:47.458Z,973.72
2023-03-26T02:43:18.573Z,973.72
2023-03-26T02:43:51.359Z,974.13
2023-03-26T02:44:22.616Z,974.13
2023-03-26T02:44:55.363Z,974.13
2023-03-26T02:45:27.686Z,974.13
2023-03-26T02:45:59.925Z,974.03
2023-03-26T02:46:30.564Z,974.03
2023-03-26T02:47:03.292Z,974.13
2023-03-26T02:47:34.742Z,974.13
2023-03-26T02:48:07.544Z,973.92
2023-03-26T02:48:38.547Z,973.92
2023-03-26T02:49:11.250Z,973.92
2023-03-26T02:49:42.575Z,973.82
2023-03-26T02:50:15.707Z,973.82
2023-03-26T02:50:46.502Z,973.92
2023-03-26T02:51:19.598Z,973.92
2023-03-26T02:51:50.556Z,973.82
2023-03-26T02:52:24.265Z,973.82
2023-03-26T02:52:54.725Z,973.82
2023-03-26T02:53:27.562Z,973.82
2023-03-26T02:53:58.502Z,973.72
2023-03-26T02:54:32.420Z,973.72
2023-03-26T02:55:03.038Z,973.82
2023-03-26T02:55:35.526Z,973.82
2023-03-26T02:56:06.590Z,973.82
2023-03-26T02:56:39.599Z,973.82
2023-03-26T02:57:10.647Z,973.82
2023-03-26T02:57:43.479Z,973.72
2023-03-26T02:58:14.650Z,973.72
2023-03-26T02:58:47.804Z,973.72
2023-03-26T02:59:18.565Z,973.72
2023-03-26T02:59:51.435Z,973.92
2023-03-26T03:00:24.344Z,973.92
2023-03-26T03:00:55.512Z,973.82
2023-03-26T03:01:26.758Z,973.82
2023-03-26T03:01:59.499Z,974.03
2023-03-26T03:02:30.743Z,974.03
2023-03-26T03:03:03.609Z,973.72
2023-03-26T03:03:34.751Z,973.72
2023-03-26T03:04:07.574Z,973.72
2023-03-26T03:04:38.507Z,973.82
2023-03-26T03:05:11.648Z,973.82
2023-03-26T03:05:42.676Z,973.72
2023-03-26T03:06:15.505Z,973.72
2023-03-26T03:06:46.557Z,973.52
2023-03-26T03:07:19.753Z,973.52
2023-03-26T03:07:50.682Z,973.72
2023-03-26T03:08:23.577Z,973.72
2023-03-26T03:08:54.610Z,973.72
2023-03-26T03:09:27.541Z,973.72
2023-03-26T03:09:58.496Z,973.72
2023-03-26T03:10:31.901Z,973.72
2023-03-26T03:11:02.631Z,973.72
2023-03-26T03:11:35.398Z,973.72
2023-03-26T03:12:06.539Z,973.72
2023-03-26T03:12:39.674Z,973.82
2023-03-26T03:13:10.718Z,973.82
2023-03-26T03:13:43.193Z,973.62
2023-03-26T03:14:14.651Z,973.62
2023-03-26T03:14:47.317Z,973.62
2023-03-26T03:15:19.391Z,973.62
2023-03-26T03:15:51.810Z,973.72
2023-03-26T03:16:22.608Z,973.72
2023-03-26T03:16:55.616Z,973.72
2023-03-26T03:17:26.555Z,973.72
2023-03-26T03:17:59.706Z,973.52
2023-03-26T03:18:30.678Z,973.52
2023-03-26T03:19:03.154Z,973.62
2023-03-26T03:19:34.506Z,973.62
2023-03-26T03:20:07.654Z,973.62
2023-03-26T03:20:38.527Z,973.52
2023-03-26T03:21:11.317Z,973.52
2023-03-26T03:21:42.717Z,973.62
2023-03-26T03:22:16.264Z,973.62
2023-03-26T03:22:46.616Z,973.42
2023-03-26T03:23:19.316Z,973.42
2023-03-26T03:23:50.580Z,973.52
2023-03-26T03:24:23.351Z,973.52
2023-03-26T03:24:54.624Z,973.31
2023-03-26T03:25:27.885Z,973.31
2023-03-26T03:25:58.536Z,973.31
2023-03-26T03:26:31.550Z,973.31
2023-03-26T03:27:02.620Z,973.31
2023-03-26T03:27:35.551Z,973.31
2023-03-26T03:28:06.471Z,973.42
2023-03-26T03:28:39.378Z,973.52
2023-03-26T03:29:10.620Z,973.52
2023-03-26T03:29:43.359Z,973.52
2023-03-26T03:30:15.377Z,973.52
2023-03-26T03:30:47.525Z,973.42
2023-03-26T03:31:18.784Z,973.42
2023-03-26T03:31:51.454Z,973.42
2023-03-26T03:32:22.793Z,973.42
2023-03-26T03:32:55.639Z,973.21
2023-03-26T03:33:26.499Z,973.21
2023-03-26T03:33:59.500Z,973.42
2023-03-26T03:34:30.725Z,973.42
2023-03-26T03:35:03.830Z,973.42
2023-03-26T03:35:34.520Z,973.42
2023-03-26T03:36:07.575Z,973.21
2023-03-26T03:36:38.792Z,973.42
2023-03-26T03:37:11.446Z,973.42
2023-03-26T03:37:42.615Z,973.42
2023-03-26T03:38:15.369Z,973.42
2023-03-26T03:38:46.745Z,973.52
2023-03-26T03:39:19.385Z,973.52
2023-03-26T03:39:50.587Z,973.11
2023-03-26T03:40:23.948Z,973.11
2023-03-26T03:40:54.619Z,973.52
2023-03-26T03:41:27.454Z,973.52
2023-03-26T03:41:58.788Z,973.31
2023-03-26T03:42:31.478Z,973.31
2023-03-26T03:43:02.679Z,973.21
2023-03-26T03:43:35.409Z,973.21
2023-03-26T03:44:06.698Z,973.52
2023-03-26T03:44:40.265Z,973.31
2023-03-26T03:45:11.644Z,973.31
2023-03-26T03:45:43.685Z,973.31
2023-03-26T03:46:14.700Z,973.31
2023-03-26T03:46:47.387Z,973.31
2023-03-26T03:47:18.698Z,973.31
2023-03-26T03:47:51.735Z,973.21
2023-03-26T03:48:22.551Z,973.21
2023-03-26T03:48:55.588Z,973.52
2023-03-26T03:49:26.709Z,973.52
2023-03-26T03:49:59.609Z,973.31
2023-03-26T03:50:31.355Z,973.31
2023-03-26T03:51:03.540Z,973.31
2023-03-26T03:51:34.732Z,973.31
2023-03-26T03:52:09.529Z,973.31
2023-03-26T03:52:38.591Z,973.31
2023-03-26T03:53:11.352Z,973.31
2023-03-26T03:53:42.472Z,973.31
2023-03-26T03:54:15.480Z,973.31
2023-03-26T03:54:46.708Z,973.42
2023-03-26T03:55:19.903Z,973.42
2023-03-26T03:55:50.580Z,973.21
2023-03-26T03:56:23.535Z,973.21
2023-03-26T03:56:54.726Z,973.21
2023-03-26T03:57:27.553Z,973.21
2023-03-26T03:57:58.649Z,973.31
2023-03-26T03:58:31.614Z,973.31
2023-03-26T03:59:02.715Z,973.31
2023-03-26T03:59:35.317Z,973.31
2023-03-26T04:00:07.967Z,973.52
2023-03-26T04:00:39.825Z,973.42
2023-03-26T04:01:10.552Z,973.42
2023-03-26T04:01:43.605Z,973.42
2023-03-26T04:02:14.744Z,973.42
2023-03-26T04:02:47.708Z,973.21
2023-03-26T04:03:18.630Z,973.21
2023-03-26T04:03:51.607Z,973.62
2023-03-26T04:04:22.661Z,973.62
2023-03-26T04:04:55.373Z,973.31
2023-03-26T04:05:26.923Z,973.31
2023-03-26T04:05:59.371Z,973.42
2023-03-26T04:06:30.814Z,973.42
2023-03-26T04:07:03.323Z,973.52
2023-03-26T04:07:34.645Z,973.52
2023-03-26T04:08:07.390Z,973.42
2023-03-26T04:08:38.568Z,973.42
2023-03-26T04:09:11.460Z,973.42
2023-03-26T04:09:42.753Z,973.31
2023-03-26T04:10:16.446Z,973.31
2023-03-26T04:10:46.565Z,973.42
2023-03-26T04:11:19.430Z,973.42
2023-03-26T04:11:50.697Z,973.62
2023-03-26T04:12:23.409Z,973.62
2023-03-26T04:12:54.584Z,973.31
2023-03-26T04:13:27.509Z,973.31
2023-03-26T04:13:58.725Z,973.31
2023-03-26T04:14:31.422Z,973.31
2023-03-26T04:15:04.096Z,973.62
2023-03-26T04:15:35.579Z,973.62
2023-03-26T04:16:06.585Z,973.42
2023-03-26T04:16:39.491Z,973.52
2023-03-26T04:17:10.932Z,973.52
2023-03-26T04:17:43.405Z,973.31
2023-03-26T04:18:14.528Z,973.31
2023-03-26T04:18:47.474Z,973.31
2023-03-26T04:19:18.687Z,973.31
2023-03-26T04:19:51.338Z,973.52
2023-03-26T04:20:22.913Z,973.52
2023-03-26T04:20:55.699Z,973.21
2023-03-26T04:21:26.536Z,973.21
2023-03-26T04:21:59.415Z,973.52
2023-03-26T04:22:30.722Z,973.52
2023-03-26T04:23:03.447Z,973.31
2023-03-26T04:23:34.596Z,973.31
2023-03-26T04:24:07.406Z,973.31
2023-03-26T04:24:38.634Z,973.11
2023-03-26T04:25:11.664Z,973.11
2023-03-26T04:25:42.607Z,973.31
2023-03-26T04:26:15.472Z,973.31
2023-03-26T04:26:46.502Z,973.42
2023-03-26T04:27:02.734Z,973.42
2023-03-26T04:27:34.766Z,973.42
2023-03-26T04:28:06.592Z,973.31
2023-03-26T04:28:39.395Z,973.11
2023-03-26T04:29:10.732Z,973.11
2023-03-26T04:29:43.680Z,973.01
2023-03-26T04:30:15.526Z,973.01
2023-03-26T04:30:47.631Z,973.01
2023-03-26T04:31:18.661Z,973.01
2023-03-26T04:31:51.445Z,973.31
2023-03-26T04:32:22.661Z,973.31
2023-03-26T04:32:55.635Z,973.01
2023-03-26T04:33:26.553Z,973.01
2023-03-26T04:33:59.378Z,973.21
2023-03-26T04:34:30.610Z,973.21
2023-03-26T04:35:04.029Z,973.01
2023-03-26T04:35:34.773Z,973.01
2023-03-26T04:36:07.415Z,973.21
2023-03-26T04:36:38.657Z,973.01
2023-03-26T04:37:11.521Z,973.01
2023-03-26T04:37:42.602Z,972.91
2023-03-26T04:38:15.408Z,972.91
2023-03-26T04:38:46.543Z,973.11
2023-03-26T04:39:19.470Z,973.11
2023-03-26T04:39:50.695Z,972.74
2023-03-26T04:40:25.181Z,972.74
2023-03-26T04:40:54.596Z,973.01
2023-03-26T04:41:27.450Z,973.01
2023-03-26T04:41:58.654Z,973.21
2023-03-26T04:42:31.522Z,973.21
2023-03-26T04:43:02.569Z,973.11
2023-03-26T04:43:35.581Z,973.11
2023-03-26T04:44:06.626Z,973.11
2023-03-26T04:44:39.489Z,972.91
2023-03-26T04:45:11.606Z,972.91
2023-03-26T04:45:43.614Z,972.84
2023-03-26T04:46:14.666Z,972.84
2023-03-26T04:46:47.520Z,972.91
2023-03-26T04:47:18.641Z,972.91
2023-03-26T04:47:51.404Z,973.01
2023-03-26T04:48:22.592Z,973.01
2023-03-26T04:48:55.685Z,972.91
2023-03-26T04:49:26.674Z,972.91
2023-03-26T04:49:59.371Z,973.01
2023-03-26T04:50:30.962Z,973.01
2023-03-26T04:51:03.520Z,972.84
2023-03-26T04:51:34.653Z,972.84
2023-03-26T04:52:07.396Z,972.84
2023-03-26T04:52:38.760Z,972.84
2023-03-26T04:53:14.613Z,972.84
2023-03-26T04:53:42.538Z,972.84
2023-03-26T04:54:15.364Z,972.84
2023-03-26T04:54:46.752Z,972.84
2023-03-26T04:55:19.714Z,972.84
2023-03-26T04:55:50.694Z,972.84
2023-03-26T04:56:23.522Z,972.84
2023-03-26T04:56:54.601Z,972.74
2023-03-26T04:57:27.543Z,972.74
2023-03-26T04:57:58.681Z,972.84
2023-03-26T04:58:31.598Z,972.84
2023-03-26T04:59:02.659Z,972.74
2023-03-26T04:59:35.624Z,972.74
2023-03-26T05:00:08.132Z,972.74
2023-03-26T05:00:40.303Z,972.64
2023-03-26T05:01:10.915Z,972.64
2023-03-26T05:01:43.716Z,972.74
2023-03-26T05:02:14.723Z,972.74
2023-03-26T05:02:47.655Z,972.64
2023-03-26T05:03:18.639Z,972.64
2023-03-26T05:03:51.592Z,972.64
2023-03-26T05:04:22.665Z,972.64
2023-03-26T05:04:55.586Z,972.84
2023-03-26T05:05:26.886Z,972.84
2023-03-26T05:05:59.503Z,972.84
2023-03-26T05:06:30.972Z,972.84
2023-03-26T05:07:03.650Z,972.74
2023-03-26T05:07:34.672Z,972.74
2023-03-26T05:08:07.597Z,972.74
2023-03-26T05:08:38.818Z,972.54
2023-03-26T05:09:12.377Z,972.54
2023-03-26T05:09:43.032Z,972.64
2023-03-26T05:10:15.752Z,972.64
2023-03-26T05:10:46.888Z,972.43
2023-03-26T05:11:19.737Z,972.43
2023-03-26T05:11:50.786Z,972.74
2023-03-26T05:12:24.652Z,972.74
2023-03-26T05:12:54.952Z,972.54
2023-03-26T05:13:29.817Z,972.54
2023-03-26T05:13:58.787Z,972.54
2023-03-26T05:14:31.631Z,972.54
2023-03-26T05:15:04.278Z,972.54
2023-03-26T05:15:35.834Z,972.54
2023-03-26T05:16:06.876Z,972.54
2023-03-26T05:16:39.909Z,972.33
2023-03-26T05:17:11.189Z,972.33
2023-03-26T05:17:44.788Z,972.33
2023-03-26T05:18:14.839Z,972.33
2023-03-26T05:18:47.818Z,972.33
2023-03-26T05:19:18.805Z,972.33
2023-03-26T05:19:51.707Z,972.43
2023-03-26T05:20:23.198Z,972.43
2023-03-26T05:20:55.750Z,972.54
2023-03-26T05:21:26.775Z,972.54
2023-03-26T05:21:59.685Z,972.23
2023-03-26T05:22:31.054Z,972.23
2023-03-26T05:23:03.688Z,972.23
2023-03-26T05:23:34.792Z,972.23
2023-03-26T05:24:07.668Z,972.43
2023-03-26T05:24:38.933Z,972.23
2023-03-26T05:25:11.909Z,972.23
2023-03-26T05:25:42.877Z,972.43
2023-03-26T05:26:15.674Z,972.43
2023-03-26T05:26:46.847Z,972.43
2023-03-26T05:27:19.769Z,972.43
2023-03-26T05:27:50.895Z,972.33
2023-03-26T05:28:23.532Z,972.33
2023-03-26T05:28:54.915Z,972.54
2023-03-26T05:29:27.909Z,972.54
2023-03-26T05:29:59.025Z,972.64
2023-03-26T05:30:33.696Z,972.64
2023-03-26T05:31:02.920Z,972.23
2023-03-26T05:31:35.929Z,972.23
2023-03-26T05:32:06.711Z,972.33
2023-03-26T05:32:39.918Z,972.23
2023-03-26T05:33:11.042Z,972.23
2023-03-26T05:33:44.755Z,972.43
2023-03-26T05:34:14.786Z,972.43
2023-03-26T05:34:47.707Z,972.23
2023-03-26T05:35:19.317Z,972.23
2023-03-26T05:35:52.636Z,972.13
2023-03-26T05:36:22.808Z,972.13
2023-03-26T05:36:55.656Z,972.33
2023-03-26T05:37:26.925Z,972.33
2023-03-26T05:37:59.635Z,972.13
2023-03-26T05:38:30.961Z,972.13
2023-03-26T05:39:03.809Z,972.23
2023-03-26T05:39:35.071Z,972.23
2023-03-26T05:40:08.033Z,972.23
2023-03-26T05:40:38.931Z,972.23
2023-03-26T05:41:11.901Z,972.23
2023-03-26T05:41:42.969Z,972.23
2023-03-26T05:42:15.849Z,972.23
2023-03-26T05:42:46.849Z,972.33
2023-03-26T05:43:19.770Z,972.33
2023-03-26T05:43:50.833Z,972.13
2023-03-26T05:44:23.615Z,972.13
2023-03-26T05:44:54.945Z,971.93
2023-03-26T05:45:31.743Z,971.93
2023-03-26T05:45:59.029Z,972.03
2023-03-26T05:46:31.839Z,972.03
2023-03-26T05:47:02.797Z,972.13
2023-03-26T05:47:35.722Z,972.13
2023-03-26T05:48:06.953Z,972.33
2023-03-26T05:48:39.899Z,972.23
2023-03-26T05:49:10.796Z,972.23
2023-03-26T05:49:43.693Z,972.03
2023-03-26T05:50:15.160Z,972.03
2023-03-26T05:50:47.673Z,972.13
2023-03-26T05:51:18.780Z,972.13
2023-03-26T05:51:53.705Z,972.13
2023-03-26T05:52:22.955Z,972.13
2023-03-26T05:52:55.726Z,971.93
2023-03-26T05:53:26.978Z,971.93
2023-03-26T05:53:59.669Z,971.93
2023-03-26T05:54:30.852Z,971.93
2023-03-26T05:55:03.927Z,971.93
2023-03-26T05:55:34.981Z,971.93
2023-03-26T05:56:07.678Z,971.82
2023-03-26T05:56:38.817Z,971.82
2023-03-26T05:57:12.032Z,971.82
2023-03-26T05:57:42.915Z,971.82
2023-03-26T05:58:15.650Z,971.82
2023-03-26T05:58:46.911Z,971.93
2023-03-26T05:59:19.891Z,971.93
2023-03-26T05:59:50.984Z,971.62
2023-03-26T06:00:25.587Z,971.62
2023-03-26T06:00:55.232Z,971.82
2023-03-26T06:01:27.562Z,971.82
2023-03-26T06:01:58.846Z,971.82
2023-03-26T06:02:31.756Z,971.82
2023-03-26T06:03:03.123Z,971.52
2023-03-26T06:03:35.840Z,971.52
2023-03-26T06:04:06.875Z,971.82
2023-03-26T06:04:39.752Z,971.93
2023-03-26T06:05:11.263Z,971.93
2023-03-26T06:05:43.542Z,971.93
2023-03-26T06:06:14.800Z,971.93
2023-03-26T06:06:48.523Z,971.62
2023-03-26T06:07:18.804Z,971.62
2023-03-26T06:07:51.597Z,971.52
2023-03-26T06:08:22.893Z,971.52
2023-03-26T06:09:01.085Z,971.62
2023-03-26T06:09:26.782Z,971.62
2023-03-26T06:09:59.598Z,971.52
2023-03-26T06:10:31.387Z,971.52
2023-03-26T06:11:03.600Z,971.72
2023-03-26T06:11:34.989Z,971.72
2023-03-26T06:12:07.642Z,971.42
2023-03-26T06:12:38.889Z,971.52
2023-03-26T06:13:11.684Z,971.52
2023-03-26T06:13:42.782Z,971.52
2023-03-26T06:14:15.493Z,971.52
2023-03-26T06:14:46.985Z,971.52
2023-03-26T06:15:20.714Z,971.52
2023-03-26T06:15:50.937Z,971.42
2023-03-26T06:16:27.118Z,971.42
2023-03-26T06:16:54.865Z,971.42
2023-03-26T06:17:31.424Z,971.42
2023-03-26T06:17:58.944Z,971.52
2023-03-26T06:18:31.212Z,971.52
2023-03-26T06:19:02.909Z,971.42
2023-03-26T06:19:34.887Z,971.42
2023-03-26T06:20:09.299Z,971.32
2023-03-26T06:20:38.832Z,971.52
2023-03-26T06:21:11.581Z,971.52
2023-03-26T06:21:43.053Z,971.52
2023-03-26T06:22:15.672Z,971.52
2023-03-26T06:22:46.973Z,971.52
2023-03-26T06:23:19.825Z,971.52
2023-03-26T06:23:50.833Z,971.52
2023-03-26T06:24:23.672Z,971.52
2023-03-26T06:24:54.972Z,971.32
2023-03-26T06:25:27.994Z,971.32
2023-03-26T06:25:58.938Z,971.42
2023-03-26T06:26:31.848Z,971.42
2023-03-26T06:27:02.986Z,971.52
2023-03-26T06:27:35.744Z,971.52
2023-03-26T06:28:06.766Z,971.52
2023-03-26T06:28:40.630Z,971.42
2023-03-26T06:29:11.179Z,971.42
2023-03-26T06:29:43.767Z,971.52
2023-03-26T06:30:15.800Z,971.52
2023-03-26T06:30:47.943Z,971.42
2023-03-26T06:31:19.004Z,971.42
2023-03-26T06:31:51.620Z,971.42
2023-03-26T06:32:23.089Z,971.42
2023-03-26T06:32:55.892Z,971.52
2023-03-26T06:33:26.827Z,971.52
2023-03-26T06:33:59.826Z,971.42
2023-03-26T06:34:30.958Z,971.42
2023-03-26T06:35:04.852Z,971.42
2023-03-26T06:35:34.940Z,971.42
2023-03-26T06:36:08.402Z,971.42
2023-03-26T06:36:38.948Z,971.52
2023-03-26T06:37:11.570Z,971.52
2023-03-26T06:37:42.909Z,971.42